Time;durP1;ratioP1;P1;durP2;ratioP2;P2;SDS_P1;SDS_P2;PMS_P1;PMS_P2;Temp;Humidity;BMP_temperature;BMP_pressure;BME280_temperature;BME280_humidity;BME280_pressure;Samples;Min_cycle;Max_cycle;Signal;HPM_P1;HPM_P2
2022/05/21 00:02:47;;;;;;;12.68;4.63;;;;;19.70;96518.00;;;;8389024;28;20311;-70
2022/05/21 00:06:50;;;;;;;7.40;4.28;;;;;19.70;96514.00;;;;8399493;28;20228;-71
2022/05/21 00:10:53;;;;;;;7.88;4.90;;;;;19.60;96517.00;;;;8404158;28;20238;-72
2022/05/21 00:14:58;;;;;;;6.90;4.65;;;;;19.50;96522.00;;;;8392056;28;20248;-70
2022/05/21 00:19:01;;;;;;;8.70;5.07;;;;;19.50;96526.00;;;;8402197;28;20653;-70
2022/05/21 00:23:11;;;;;;;7.63;4.85;;;;;19.40;96528.00;;;;8385609;28;20219;-74
2022/05/21 00:27:14;;;;;;;11.80;4.75;;;;;19.30;96534.00;;;;8385539;28;20235;-72
2022/05/21 00:31:20;;;;;;;7.40;4.50;;;;;19.30;96528.00;;;;8392542;28;20261;-70
2022/05/21 00:35:23;;;;;;;7.90;4.32;;;;;19.20;96525.00;;;;8394118;28;20231;-71
2022/05/21 00:39:26;;;;;;;8.27;4.47;;;;;19.10;96521.00;;;;8364361;28;20300;-69
2022/05/21 00:43:40;;;;;;;6.60;4.07;;;;;19.10;96537.00;;;;8361409;28;20327;-69
2022/05/21 00:47:44;;;;;;;9.02;4.30;;;;;19.00;96551.00;;;;8364981;28;20748;-69
2022/05/21 00:51:58;;;;;;;7.05;4.05;;;;;19.00;96546.00;;;;8363969;28;20238;-70
2022/05/21 00:56:02;;;;;;;9.32;4.05;;;;;18.90;96551.00;;;;8359954;28;21130;-70
2022/05/21 01:00:14;;;;;;;7.38;3.80;;;;;18.80;96553.00;;;;8352810;28;20326;-69
2022/05/21 01:04:18;;;;;;;6.30;3.67;;;;;18.80;96552.00;;;;8358118;28;20276;-70
2022/05/21 01:08:21;;;;;;;7.80;3.45;;;;;18.70;96559.00;;;;8369696;28;20623;-71
2022/05/21 01:12:29;;;;;;;7.43;4.10;;;;;18.70;96562.00;;;;8366585;28;20323;-71
2022/05/21 01:16:33;;;;;;;5.43;3.60;;;;;18.60;96557.00;;;;8364993;28;20225;-70
2022/05/21 01:20:41;;;;;;;4.18;3.53;;;;;18.60;96545.00;;;;8366131;28;20217;-71
2022/05/21 01:24:45;;;;;;;6.07;3.70;;;;;18.50;96558.00;;;;8378438;28;20236;-71
2022/05/21 01:28:50;;;;;;;8.60;3.50;;;;;18.40;96557.00;;;;8375266;28;20224;-73
2022/05/21 01:32:53;;;;;;;8.00;4.10;;;;;18.30;96566.00;;;;8374388;28;20235;-70
2022/05/21 01:36:56;;;;;;;4.72;4.10;;;;;18.30;96567.00;;;;8378329;28;20319;-70
2022/05/21 01:41:01;;;;;;;7.55;4.10;;;;;18.20;96571.00;;;;8382519;28;20249;-70
2022/05/21 01:45:06;;;;;;;7.80;4.13;;;;;18.20;96578.00;;;;8385195;28;20314;-69
2022/05/21 01:49:09;;;;;;;8.75;4.35;;;;;18.10;96582.00;;;;8380074;28;20269;-70
2022/05/21 01:53:12;;;;;;;8.80;4.50;;;;;18.00;96590.00;;;;8367925;28;20333;-70
2022/05/21 01:57:17;;;;;;;6.90;4.10;;;;;17.90;96597.00;;;;8378569;28;20269;-70
2022/05/21 02:01:20;;;;;;;6.30;4.38;;;;;17.90;96601.00;;;;8374446;28;20331;-69
2022/05/21 02:05:24;;;;;;;10.38;4.35;;;;;17.80;96598.00;;;;8392156;28;20224;-69
2022/05/21 02:09:58;;;;;;;10.38;4.10;;;;;17.70;96606.00;;;;8391789;28;20259;-68
2022/05/21 02:14:02;;;;;;;5.30;3.80;;;;;17.70;96611.00;;;;8392218;28;20644;-69
2022/05/21 02:18:36;;;;;;;3.90;3.50;;;;;17.60;96615.00;;;;8391552;28;20248;-69
2022/05/21 02:22:39;;;;;;;5.82;3.83;;;;;17.60;96609.00;;;;8391776;28;20666;-69
2022/05/21 02:27:16;;;;;;;6.85;3.50;;;;;17.50;96614.00;;;;8391825;28;20654;-70
2022/05/21 02:31:21;;;;;;;5.13;3.63;;;;;17.40;96611.00;;;;8391562;28;20231;-71
2022/05/21 02:35:54;;;;;;;5.03;3.65;;;;;17.30;96623.00;;;;8390918;28;20244;-70
2022/05/21 02:39:57;;;;;;;5.85;3.65;;;;;17.20;96621.00;;;;8392071;28;20224;-70
2022/05/21 02:44:01;;;;;;;8.32;3.25;;;;;17.20;96624.00;;;;8391262;28;20216;-70
2022/05/21 02:48:06;;;;;;;4.68;3.35;;;;;17.20;96629.00;;;;8392352;28;20312;-70
2022/05/21 02:52:09;;;;;;;6.63;3.60;;;;;17.20;96625.00;;;;8390386;28;20254;-72
2022/05/21 02:56:48;;;;;;;6.80;3.30;;;;;17.20;96634.00;;;;8391603;28;20319;-71
2022/05/21 03:00:51;;;;;;;9.32;3.67;;;;;17.20;96629.00;;;;8405930;22;20352;-71
2022/05/21 03:04:56;;;;;;;5.25;3.45;;;;;17.10;96637.00;;;;8367696;22;20320;-70
2022/05/21 03:13:20;;;;;;;5.07;3.50;;;;;17.10;96644.00;;;;8349573;28;20243;-71
2022/05/21 03:17:26;;;;;;;8.63;3.92;;;;;17.10;96652.00;;;;8364776;28;20592;-70
2022/05/21 03:21:31;;;;;;;5.43;3.90;;;;;17.10;96665.00;;;;8364979;28;20573;-71
2022/05/21 03:25:34;;;;;;;14.00;5.90;;;;;17.10;96675.00;;;;8371135;28;20246;-70
2022/05/21 03:29:38;;;;;;;8.52;4.50;;;;;17.10;96683.00;;;;8386888;28;20672;-71
2022/05/21 03:33:41;;;;;;;8.05;5.22;;;;;17.10;96685.00;;;;8385936;28;20223;-70
2022/05/21 03:37:47;;;;;;;12.02;5.28;;;;;17.10;96689.00;;;;8355917;28;20685;-70
2022/05/21 03:41:50;;;;;;;10.52;4.85;;;;;17.10;96691.00;;;;8354955;28;20235;-71
2022/05/21 03:45:53;;;;;;;6.30;5.05;;;;;17.10;96701.00;;;;8356466;28;20228;-70
2022/05/21 03:49:56;;;;;;;9.48;5.93;;;;;17.10;96699.00;;;;8388279;28;20229;-70
2022/05/21 03:54:01;;;;;;;7.40;5.13;;;;;17.10;96709.00;;;;8361106;28;20231;-69
2022/05/21 03:58:06;;;;;;;7.22;5.32;;;;;16.90;96716.00;;;;8362358;28;20226;-69
2022/05/21 04:02:09;;;;;;;7.32;5.07;;;;;16.80;96728.00;;;;8359363;28;21762;-69
2022/05/21 04:06:12;;;;;;;5.95;5.13;;;;;16.70;96733.00;;;;8379260;28;20254;-69
2022/05/21 04:10:18;;;;;;;6.40;4.75;;;;;16.70;96749.00;;;;8367967;28;20317;-70
2022/05/21 04:14:27;;;;;;;9.00;5.30;;;;;16.70;96763.00;;;;8379540;28;20255;-70
2022/05/21 04:18:30;;;;;;;6.70;5.18;;;;;16.60;96755.00;;;;8384810;28;20232;-70
2022/05/21 04:22:33;;;;;;;5.40;4.68;;;;;16.60;96764.00;;;;8373655;28;20596;-71
2022/05/21 04:26:39;;;;;;;6.50;5.07;;;;;16.60;96763.00;;;;8374662;28;20244;-69
2022/05/21 04:30:42;;;;;;;5.10;4.60;;;;;16.70;96767.00;;;;8361796;28;20226;-73
2022/05/21 04:34:45;;;;;;;5.72;4.68;;;;;17.00;96763.00;;;;8374306;28;20235;-70
2022/05/21 04:38:51;;;;;;;4.90;4.05;;;;;17.10;96770.00;;;;8406457;28;20218;-70
2022/05/21 04:42:55;;;;;;;7.15;4.38;;;;;17.20;96784.00;;;;8406471;28;20711;-69
2022/05/21 04:46:59;;;;;;;11.35;5.80;;;;;17.10;96788.00;;;;8409539;28;20786;-70
2022/05/21 04:51:05;;;;;;;6.13;5.00;;;;;17.00;96789.00;;;;8414138;28;20224;-70
2022/05/21 04:55:10;;;;;;;6.10;4.88;;;;;17.00;96786.00;;;;8409530;28;20227;-71
2022/05/21 04:59:15;;;;;;;5.25;4.45;;;;;17.00;96792.00;;;;8414217;28;20740;-71
2022/05/21 05:03:19;;;;;;;5.57;4.97;;;;;16.90;96798.00;;;;8405727;28;20226;-71
2022/05/21 05:07:23;;;;;;;5.30;4.75;;;;;17.00;96802.00;;;;8406190;28;20226;-71
2022/05/21 05:11:27;;;;;;;5.05;4.55;;;;;17.20;96804.00;;;;8410778;28;20227;-71
2022/05/21 05:15:32;;;;;;;6.32;4.90;;;;;17.10;96811.00;;;;8411942;28;20235;-72
2022/05/21 05:19:35;;;;;;;5.47;4.32;;;;;17.30;96810.00;;;;8411735;28;20301;-70
2022/05/21 05:23:38;;;;;;;7.03;4.75;;;;;17.60;96808.00;;;;8415692;28;20321;-69
2022/05/21 05:27:42;;;;;;;4.75;4.35;;;;;17.70;96810.00;;;;8415446;28;20238;-69
2022/05/21 05:31:46;;;;;;;9.68;4.32;;;;;17.70;96812.00;;;;8413764;28;20315;-71
2022/05/21 05:35:52;;;;;;;4.22;3.78;;;;;17.80;96813.00;;;;8411669;28;20760;-69
2022/05/21 05:39:56;;;;;;;4.63;4.10;;;;;17.70;96818.00;;;;8408541;28;20226;-69
2022/05/21 05:43:59;;;;;;;4.45;4.10;;;;;17.80;96821.00;;;;8408159;28;20463;-68
2022/05/21 05:48:05;;;;;;;7.03;4.53;;;;;17.90;96821.00;;;;8405044;28;20231;-70
2022/05/21 05:52:09;;;;;;;5.68;3.42;;;;;18.10;96820.00;;;;8408341;28;20549;-70
2022/05/21 05:56:13;;;;;;;4.85;3.53;;;;;18.30;96815.00;;;;8407848;28;20314;-70
2022/05/21 06:00:16;;;;;;;5.28;3.50;;;;;18.30;96812.00;;;;8402432;28;20225;-70
2022/05/21 06:04:21;;;;;;;4.75;3.17;;;;;18.20;96823.00;;;;8391224;28;20318;-70
2022/05/21 06:08:24;;;;;;;5.13;4.55;;;;;18.20;96820.00;;;;8369906;28;20636;-70
2022/05/21 06:12:27;;;;;;;5.40;3.72;;;;;18.50;96827.00;;;;8389232;28;20587;-68
2022/05/21 06:16:31;;;;;;;4.55;3.30;;;;;18.90;96817.00;;;;8383814;28;20576;-70
2022/05/21 06:20:35;;;;;;;3.50;3.20;;;;;18.80;96815.00;;;;8391768;28;20724;-69
2022/05/21 06:24:39;;;;;;;3.28;3.03;;;;;18.60;96817.00;;;;8388408;28;20680;-70
2022/05/21 06:28:42;;;;;;;3.90;3.33;;;;;18.60;96833.00;;;;8380631;28;20235;-70
2022/05/21 06:32:45;;;;;;;4.65;2.90;;;;;18.50;96835.00;;;;8383852;28;20228;-70
2022/05/21 06:36:50;;;;;;;5.35;2.90;;;;;18.90;96841.00;;;;8375452;28;20230;-69
2022/05/21 06:40:53;;;;;;;5.78;3.00;;;;;19.20;96858.00;;;;8387827;28;20212;-70
2022/05/21 06:44:56;;;;;;;5.47;2.90;;;;;19.70;96860.00;;;;8374559;28;20339;-69
2022/05/21 06:49:00;;;;;;;3.75;3.00;;;;;20.20;96854.00;;;;8403936;28;20224;-69
2022/05/21 06:53:04;;;;;;;3.28;3.08;;;;;20.10;96863.00;;;;8404668;28;20290;-69
2022/05/21 06:57:10;;;;;;;5.25;2.88;;;;;19.60;96861.00;;;;8410227;28;20212;-70
2022/05/21 07:01:14;;;;;;;3.67;2.53;;;;;19.80;96857.00;;;;8403134;28;20228;-69
2022/05/21 07:09:40;;;;;;;3.03;2.65;;;;;19.60;96850.00;;;;8394838;28;20731;-70
2022/05/21 07:13:44;;;;;;;2.80;2.60;;;;;19.90;96860.00;;;;8386061;28;20398;-69
2022/05/21 07:17:48;;;;;;;3.30;2.50;;;;;20.30;96853.00;;;;8387979;28;20694;-69
2022/05/21 07:21:51;;;;;;;3.03;2.30;;;;;20.60;96865.00;;;;8352352;28;20224;-69
2022/05/21 07:25:56;;;;;;;3.58;2.58;;;;;20.90;96868.00;;;;8375147;28;20307;-69
2022/05/21 07:29:59;;;;;;;2.30;2.20;;;;;21.30;96866.00;;;;8352175;28;20228;-69
2022/05/21 07:34:02;;;;;;;1.80;1.80;;;;;21.10;96863.00;;;;8388569;28;20227;-69
2022/05/21 07:38:06;;;;;;;2.47;2.03;;;;;21.30;96862.00;;;;8389835;28;20241;-70
2022/05/21 07:42:11;;;;;;;2.35;2.15;;;;;21.40;96857.00;;;;8392750;28;20318;-68
2022/05/21 07:46:14;;;;;;;3.58;2.05;;;;;21.60;96860.00;;;;8386178;28;20706;-68
2022/05/21 07:50:20;;;;;;;2.00;1.90;;;;;21.80;96867.00;;;;8393806;28;20215;-69
2022/05/21 07:54:23;;;;;;;2.40;2.20;;;;;21.50;96862.00;;;;8384676;28;20216;-69
2022/05/21 07:58:31;;;;;;;2.10;2.00;;;;;22.00;96857.00;;;;8382926;28;20307;-68
2022/05/21 08:02:34;;;;;;;21.80;2.30;;;;;22.70;96859.00;;;;8376483;28;20635;-68
2022/05/21 08:06:38;;;;;;;2.80;2.00;;;;;23.30;96856.00;;;;8397490;28;20228;-69
2022/05/21 08:10:45;;;;;;;2.17;1.98;;;;;23.50;96864.00;;;;8390908;28;20315;-68
2022/05/21 08:14:50;;;;;;;2.47;2.08;;;;;23.50;96860.00;;;;8387768;28;20307;-70
2022/05/21 08:18:53;;;;;;;2.90;1.67;;;;;23.90;96863.00;;;;8367617;28;20238;-69
2022/05/21 08:27:17;;;;;;;2.00;1.90;;;;;22.70;96872.00;;;;8375268;28;20239;-67
2022/05/21 08:31:22;;;;;;;2.40;1.92;;;;;22.40;96872.00;;;;8373289;28;20331;-69
2022/05/21 08:35:26;;;;;;;2.63;2.42;;;;;22.30;96871.00;;;;8382881;28;20262;-69
2022/05/21 08:39:29;;;;;;;5.95;2.33;;;;;21.90;96873.00;;;;8383117;28;20259;-70
2022/05/21 08:43:41;;;;;;;5.07;2.30;;;;;22.10;96883.00;;;;8381289;28;20231;-68
2022/05/21 08:47:53;;;;;;;4.68;2.03;;;;;21.90;96878.00;;;;8367108;28;20681;-69
2022/05/21 08:52:02;;;;;;;4.13;1.95;;;;;22.90;96871.00;;;;8380153;28;20800;-68
2022/05/21 08:56:05;;;;;;;3.72;2.10;;;;;23.10;96873.00;;;;8378713;28;20215;-68
2022/05/21 09:00:13;;;;;;;2.08;1.80;;;;;22.90;96871.00;;;;8380468;28;20231;-69
2022/05/21 09:04:22;;;;;;;1.75;1.65;;;;;23.70;96855.00;;;;8389800;28;20625;-69
2022/05/21 09:08:32;;;;;;;1.70;1.60;;;;;23.40;96864.00;;;;8389183;28;20232;-68
2022/05/21 09:12:44;;;;;;;2.17;2.00;;;;;22.70;96869.00;;;;8390037;28;20657;-69
2022/05/21 09:16:55;;;;;;;1.58;1.58;;;;;22.60;96871.00;;;;8399703;28;20230;-69
2022/05/21 09:21:03;;;;;;;2.03;1.85;;;;;22.50;96873.00;;;;8380846;28;21050;-69
2022/05/21 09:25:18;;;;;;;2.47;1.95;;;;;23.00;96866.00;;;;8415428;28;20231;-70
2022/05/21 09:29:25;;;;;;;2.25;1.70;;;;;22.90;96858.00;;;;8404672;28;20231;-69
2022/05/21 09:33:36;;;;;;;2.00;1.90;;;;;22.40;96857.00;;;;8395998;28;20588;-69
2022/05/21 09:37:42;;;;;;;1.90;1.80;;;;;23.20;96853.00;;;;8403395;28;20698;-69
2022/05/21 09:41:45;;;;;;;2.22;1.80;;;;;24.50;96846.00;;;;8407378;28;20238;-68
2022/05/21 09:45:48;;;;;;;1.70;1.60;;;;;24.60;96851.00;;;;8407508;28;20231;-68
2022/05/21 09:50:00;;;;;;;2.90;1.85;;;;;24.60;96857.00;;;;8408503;28;20245;-67
2022/05/21 09:54:20;;;;;;;1.65;1.50;;;;;25.10;96850.00;;;;8403313;28;20738;-70
2022/05/21 09:58:23;;;;;;;2.95;1.48;;;;;24.50;96866.00;;;;8407911;28;20245;-68
2022/05/21 10:02:39;;;;;;;2.47;1.70;;;;;25.30;96859.00;;;;8402928;28;20239;-68
2022/05/21 10:06:48;;;;;;;1.83;1.70;;;;;26.30;96856.00;;;;8413053;28;20225;-69
2022/05/21 10:10:58;;;;;;;1.50;1.45;;;;;25.70;96862.00;;;;8380932;28;20295;-69
2022/05/21 10:15:06;;;;;;;3.67;1.65;;;;;25.50;96857.00;;;;8376042;28;21075;-69
2022/05/21 10:19:16;;;;;;;1.55;1.40;;;;;25.30;96854.00;;;;8383805;28;20256;-69
2022/05/21 10:23:35;;;;;;;2.47;1.40;;;;;25.90;96843.00;;;;8380843;28;20228;-69
2022/05/21 10:28:07;;;;;;;1.20;1.20;;;;;26.30;96840.00;;;;8407827;28;20222;-68
2022/05/21 10:32:19;;;;;;;1.38;1.27;;;;;26.20;96847.00;;;;8396003;28;20274;-69
2022/05/21 10:36:31;;;;;;;1.83;1.50;;;;;25.70;96853.00;;;;8416187;28;20302;-69
2022/05/21 10:40:40;;;;;;;2.28;1.50;;;;;26.40;96840.00;;;;8409668;28;20243;-69
2022/05/21 10:44:58;;;;;;;1.33;1.33;;;;;26.70;96845.00;;;;8402000;28;20314;-69
2022/05/21 10:49:23;;;;;;;2.15;1.50;;;;;26.70;96858.00;;;;8405747;28;20238;-70
2022/05/21 10:54:02;;;;;;;1.35;1.25;;;;;25.50;96847.00;;;;8412151;28;20215;-69
2022/05/21 10:58:21;;;;;;;2.03;1.38;;;;;25.10;96841.00;;;;8402917;28;20219;-69
2022/05/21 11:03:02;;;;;;;1.30;1.20;;;;;25.00;96841.00;;;;8407031;28;20310;-69
2022/05/21 11:07:27;;;;;;;4.13;1.30;;;;;25.70;96833.00;;;;8375222;28;20311;-68
2022/05/21 11:11:40;;;;;;;1.73;1.30;;;;;26.40;96831.00;;;;8378127;28;20681;-69
2022/05/21 11:15:49;;;;;;;1.67;1.58;;;;;26.90;96838.00;;;;8404348;28;20630;-69
2022/05/21 11:19:58;;;;;;;2.50;1.50;;;;;26.60;96825.00;;;;8377935;28;20227;-69
2022/05/21 11:24:08;;;;;;;1.50;1.50;;;;;27.10;96830.00;;;;8384087;28;20227;-70
2022/05/21 11:28:27;;;;;;;1.80;1.42;;;;;26.10;96818.00;;;;8378021;28;20228;-69
2022/05/21 11:41:30;;;;;;;3.30;1.45;;;;;27.80;96809.00;;;;8410121;28;20219;-69
2022/05/21 11:45:34;;;;;;;1.92;1.33;;;;;28.30;96797.00;;;;8402687;28;20261;-69
2022/05/21 11:49:44;;;;;;;1.63;1.40;;;;;28.60;96797.00;;;;8389096;28;20342;-69
2022/05/21 11:53:49;;;;;;;1.52;1.30;;;;;27.90;96798.00;;;;8375296;28;20235;-69
2022/05/21 11:57:54;;;;;;;1.48;1.30;;;;;27.70;96791.00;;;;8404277;28;20234;-69
2022/05/21 12:02:17;;;;;;;1.30;1.30;;;;;28.10;96794.00;;;;8404595;28;20250;-70
2022/05/21 12:06:32;;;;;;;1.70;1.60;;;;;28.40;96803.00;;;;8375312;28;20238;-68
2022/05/21 12:10:56;;;;;;;1.50;1.40;;;;;28.60;96797.00;;;;8375061;28;20224;-70
2022/05/21 12:15:14;;;;;;;1.75;1.65;;;;;28.70;96792.00;;;;8375743;28;20716;-70
2022/05/21 12:20:01;;;;;;;1.25;1.15;;;;;28.50;96795.00;;;;8373376;28;20247;-69
2022/05/21 12:24:07;;;;;;;1.42;1.30;;;;;28.40;96786.00;;;;8373724;28;20230;-69
2022/05/21 12:28:13;;;;;;;2.50;1.20;;;;;27.70;96788.00;;;;8370144;28;20327;-71
2022/05/21 12:32:23;;;;;;;1.50;1.35;;;;;27.60;96793.00;;;;8376253;28;20256;-71
2022/05/21 12:36:41;;;;;;;3.42;1.25;;;;;27.30;96779.00;;;;8366330;28;20715;-72
2022/05/21 12:40:56;;;;;;;1.38;1.13;;;;;27.00;96771.00;;;;8375599;28;20228;-72
2022/05/21 12:45:01;;;;;;;1.20;1.20;;;;;26.50;96771.00;;;;8383645;28;20223;-71
2022/05/21 12:49:09;;;;;;;1.10;1.10;;;;;26.10;96773.00;;;;8375247;28;20275;-71
2022/05/21 12:53:13;;;;;;;1.85;1.08;;;;;26.10;96757.00;;;;8370381;28;20242;-73
2022/05/21 12:57:19;;;;;;;1.67;1.30;;;;;26.40;96753.00;;;;8373399;28;20222;-74
2022/05/21 13:01:29;;;;;;;1.95;1.02;;;;;26.00;96751.00;;;;8382921;28;20259;-75
2022/05/21 13:05:36;;;;;;;3.28;1.20;;;;;25.80;96763.00;;;;8409446;28;20239;-75
2022/05/21 13:09:52;;;;;;;1.48;1.10;;;;;25.70;96766.00;;;;8413067;28;20243;-76
2022/05/21 13:14:00;;;;;;;1.55;1.45;;;;;25.80;96757.00;;;;8408825;28;21063;-74
2022/05/21 13:18:19;;;;;;;1.55;1.08;;;;;26.30;96750.00;;;;8400678;28;20223;-75
2022/05/21 13:22:34;;;;;;;4.20;0.95;;;;;26.70;96745.00;;;;8397379;28;20232;-73
2022/05/21 13:26:39;;;;;;;3.35;1.10;;;;;27.10;96743.00;;;;8408382;28;20233;-75
2022/05/21 13:30:47;;;;;;;1.35;1.20;;;;;27.00;96750.00;;;;8402151;28;20227;-76
2022/05/21 13:34:54;;;;;;;1.63;1.52;;;;;27.20;96745.00;;;;8408837;28;20234;-76
2022/05/21 13:39:00;;;;;;;2.70;0.90;;;;;27.50;96744.00;;;;8407300;28;20223;-72
2022/05/21 13:43:13;;;;;;;2.88;1.15;;;;;27.90;96729.00;;;;8400482;28;20232;-72
2022/05/21 13:47:22;;;;;;;1.83;1.42;;;;;27.90;96732.00;;;;8402784;28;20234;-73
2022/05/21 13:51:28;;;;;;;1.33;1.15;;;;;28.10;96735.00;;;;8400146;28;20231;-72
2022/05/21 13:55:32;;;;;;;1.75;1.20;;;;;27.90;96732.00;;;;8408137;28;20225;-72
2022/05/21 13:59:37;;;;;;;2.13;1.30;;;;;27.90;96714.00;;;;8389687;28;20231;-68
2022/05/21 14:03:44;;;;;;;1.58;1.15;;;;;27.40;96717.00;;;;8409906;28;20592;-73
2022/05/21 14:07:53;;;;;;;1.23;1.00;;;;;27.70;96724.00;;;;8413010;28;20633;-73
2022/05/21 14:12:00;;;;;;;1.35;1.30;;;;;28.20;96726.00;;;;8401425;28;20316;-68
2022/05/21 14:16:09;;;;;;;3.13;1.30;;;;;28.00;96713.00;;;;8403533;28;20239;-67
2022/05/21 14:20:28;;;;;;;1.60;1.50;;;;;28.00;96724.00;;;;8411090;28;20227;-67
2022/05/21 14:24:35;;;;;;;2.67;1.38;;;;;27.50;96723.00;;;;8385346;28;20234;-68
2022/05/21 14:28:39;;;;;;;1.67;1.27;;;;;27.20;96720.00;;;;8410628;28;20237;-68
2022/05/21 14:32:44;;;;;;;1.38;1.10;;;;;27.00;96726.00;;;;8391551;28;20245;-69
2022/05/21 14:36:50;;;;;;;5.25;1.83;;;;;27.00;96725.00;;;;8400269;28;20628;-69
2022/05/21 14:40:59;;;;;;;2.13;1.73;;;;;26.50;96731.00;;;;8403343;28;20219;-68
2022/05/21 14:45:12;;;;;;;1.63;1.50;;;;;25.90;96699.00;;;;8410930;28;20244;-68
2022/05/21 14:49:15;;;;;;;2.60;1.40;;;;;26.30;96710.00;;;;8401432;28;20734;-69
2022/05/21 14:53:22;;;;;;;2.03;1.40;;;;;26.80;96708.00;;;;8412278;28;20636;-69
2022/05/21 14:57:27;;;;;;;1.70;1.58;;;;;26.70;96711.00;;;;8415478;28;20322;-68
2022/05/21 15:01:30;;;;;;;1.45;1.35;;;;;26.50;96713.00;;;;8399588;28;20729;-67
2022/05/21 15:05:35;;;;;;;1.90;1.38;;;;;26.30;96706.00;;;;8382264;28;20259;-67
2022/05/21 15:09:40;;;;;;;1.20;1.20;;;;;26.40;96706.00;;;;8386698;28;20239;-68
2022/05/21 15:13:46;;;;;;;5.80;1.77;;;;;26.60;96714.00;;;;8406248;28;20231;-68
2022/05/21 15:17:50;;;;;;;1.67;1.45;;;;;27.10;96716.00;;;;8398178;28;20231;-69
2022/05/21 15:21:57;;;;;;;1.52;1.40;;;;;27.30;96721.00;;;;8390125;28;20235;-70
2022/05/21 15:26:01;;;;;;;3.75;1.50;;;;;26.90;96711.00;;;;8386362;28;20709;-68
2022/05/21 15:30:07;;;;;;;2.00;1.80;;;;;26.30;96710.00;;;;8399742;28;20223;-68
2022/05/21 15:34:10;;;;;;;1.92;1.70;;;;;26.00;96706.00;;;;8386084;28;20254;-69
2022/05/21 15:38:13;;;;;;;3.17;1.70;;;;;25.80;96700.00;;;;8384240;28;20303;-69
2022/05/21 15:42:22;;;;;;;1.48;1.38;;;;;25.50;96699.00;;;;8377481;28;20895;-68
2022/05/21 15:46:28;;;;;;;1.88;1.42;;;;;25.10;96698.00;;;;8376373;28;20224;-68
2022/05/21 15:50:32;;;;;;;3.65;1.52;;;;;24.80;96712.00;;;;8378920;28;20243;-67
2022/05/21 15:54:35;;;;;;;1.60;1.50;;;;;24.60;96701.00;;;;8375622;28;20223;-69
2022/05/21 15:58:38;;;;;;;3.08;1.80;;;;;24.30;96694.00;;;;8366091;28;20224;-67
2022/05/21 16:02:43;;;;;;;1.90;1.73;;;;;24.20;96700.00;;;;8384616;28;21055;-68
2022/05/21 16:06:47;;;;;;;5.57;2.03;;;;;24.20;96677.00;;;;8404627;28;20232;-66
2022/05/21 16:10:53;;;;;;;3.33;1.85;;;;;24.30;96686.00;;;;8404487;28;20282;-68
2022/05/21 16:14:57;;;;;;;2.67;1.60;;;;;24.20;96680.00;;;;8401902;28;20230;-69
2022/05/21 16:19:02;;;;;;;4.13;2.00;;;;;24.30;96672.00;;;;8407016;28;20236;-68
2022/05/21 16:23:13;;;;;;;2.88;1.90;;;;;24.10;96680.00;;;;8407727;28;20236;-68
2022/05/21 16:27:21;;;;;;;4.53;1.85;;;;;24.00;96666.00;;;;8402067;28;20226;-67
2022/05/21 16:31:25;;;;;;;2.42;1.70;;;;;24.30;96663.00;;;;8390591;28;20324;-68
2022/05/21 16:35:30;;;;;;;1.80;1.63;;;;;24.60;96664.00;;;;8393653;28;20276;-66
2022/05/21 16:39:34;;;;;;;5.25;2.20;;;;;24.70;96668.00;;;;8398868;28;20346;-67
2022/05/21 16:43:37;;;;;;;3.25;1.70;;;;;24.70;96665.00;;;;8386897;28;20270;-66
2022/05/21 16:47:41;;;;;;;2.72;1.50;;;;;24.60;96666.00;;;;8390234;28;20248;-66
2022/05/21 16:51:45;;;;;;;2.20;1.52;;;;;24.60;96662.00;;;;8389480;28;20977;-67
2022/05/21 16:55:49;;;;;;;2.67;1.92;;;;;24.40;96654.00;;;;8400965;28;20682;-66
2022/05/21 16:59:54;;;;;;;6.18;1.80;;;;;24.20;96664.00;;;;8404767;28;20219;-68
2022/05/21 17:03:58;;;;;;;5.03;1.60;;;;;24.30;96664.00;;;;8411682;28;20972;-66
2022/05/21 17:08:03;;;;;;;2.25;1.85;;;;;24.50;96650.00;;;;8408096;28;20253;-68
2022/05/21 17:12:07;;;;;;;3.08;1.70;;;;;24.50;96647.00;;;;8403879;28;20227;-69
2022/05/21 17:16:11;;;;;;;2.55;1.70;;;;;24.30;96653.00;;;;8413719;28;20291;-70
2022/05/21 17:20:14;;;;;;;2.63;1.88;;;;;23.60;96654.00;;;;8415258;28;20223;-68
2022/05/21 17:24:19;;;;;;;5.25;2.15;;;;;23.10;96648.00;;;;8416108;28;20680;-66
2022/05/21 17:32:49;;;;;;;1.70;1.52;;;;;22.70;96637.00;;;;8405857;28;20222;-66
2022/05/21 17:36:55;;;;;;;2.25;1.75;;;;;22.50;96639.00;;;;8407625;28;20219;-68
2022/05/21 17:41:01;;;;;;;3.05;1.80;;;;;22.80;96633.00;;;;8409407;28;20223;-67
2022/05/21 17:45:06;;;;;;;2.50;1.63;;;;;22.80;96630.00;;;;8407720;28;20739;-67
2022/05/21 17:49:14;;;;;;;8.60;1.85;;;;;22.80;96630.00;;;;8420043;28;20551;-68
2022/05/21 17:53:19;;;;;;;2.65;1.75;;;;;22.80;96624.00;;;;8417647;28;20674;-66
2022/05/21 17:57:25;;;;;;;2.80;1.83;;;;;22.60;96629.00;;;;8416518;28;20258;-67
2022/05/21 18:01:28;;;;;;;2.42;1.70;;;;;22.00;96627.00;;;;8420114;28;20230;-68
2022/05/21 18:05:35;;;;;;;3.03;1.80;;;;;21.50;96624.00;;;;8382266;28;20236;-66
2022/05/21 18:09:38;;;;;;;1.88;1.50;;;;;21.10;96621.00;;;;8391214;28;20219;-70
2022/05/21 18:14:09;;;;;;;4.50;1.60;;;;;20.70;96628.00;;;;8384083;28;20721;-69
2022/05/21 18:22:34;;;;;;;2.55;1.67;;;;;20.10;96637.00;;;;8332669;28;20331;-68
2022/05/21 18:26:37;;;;;;;1.60;1.50;;;;;19.90;96632.00;;;;8377292;28;21025;-69
2022/05/21 18:30:43;;;;;;;3.38;2.08;;;;;19.70;96638.00;;;;8381103;28;20251;-68
2022/05/21 18:34:46;;;;;;;2.95;1.80;;;;;19.50;96636.00;;;;8380203;28;20680;-68
2022/05/21 18:38:50;;;;;;;2.45;1.70;;;;;19.20;96627.00;;;;8379125;28;20230;-68
2022/05/21 18:42:54;;;;;;;3.50;1.90;;;;;19.00;96629.00;;;;8382905;28;20227;-67
2022/05/21 18:46:59;;;;;;;6.82;1.92;;;;;18.80;96632.00;;;;8383157;28;20223;-67
2022/05/21 18:51:03;;;;;;;6.72;2.13;;;;;18.60;96632.00;;;;8383615;28;20271;-67
2022/05/21 18:55:12;;;;;;;4.68;1.73;;;;;18.40;96624.00;;;;8378540;28;20223;-66
2022/05/21 18:59:16;;;;;;;4.05;2.00;;;;;18.20;96626.00;;;;8381346;28;20303;-69
2022/05/21 19:03:25;;;;;;;3.85;1.85;;;;;18.00;96619.00;;;;8396794;28;20293;-67
2022/05/21 19:07:30;;;;;;;5.95;1.90;;;;;17.80;96622.00;;;;8414909;28;20223;-70
2022/05/21 19:11:34;;;;;;;2.70;2.15;;;;;17.60;96618.00;;;;8420944;28;20234;-67
2022/05/21 19:15:37;;;;;;;5.07;1.98;;;;;17.40;96617.00;;;;8427277;28;20223;-68
2022/05/21 19:19:43;;;;;;;3.30;1.77;;;;;17.30;96612.00;;;;8414017;28;20222;-68
2022/05/21 19:23:47;;;;;;;2.97;1.70;;;;;17.10;96616.00;;;;8407753;28;20219;-67
2022/05/21 19:27:50;;;;;;;5.63;2.10;;;;;17.00;96615.00;;;;8410781;28;20227;-67
2022/05/21 19:31:57;;;;;;;5.70;2.00;;;;;16.90;96614.00;;;;8420716;28;20671;-67
2022/05/21 19:36:02;;;;;;;2.58;1.67;;;;;16.80;96633.00;;;;8402927;28;20223;-66
2022/05/21 19:44:29;;;;;;;3.50;1.60;;;;;16.70;96630.00;;;;8409093;28;20254;-67
2022/05/21 19:48:33;;;;;;;3.30;1.70;;;;;16.60;96627.00;;;;8416128;28;20242;-68
2022/05/21 19:52:38;;;;;;;3.88;2.10;;;;;16.60;96632.00;;;;8413653;28;20653;-67
2022/05/21 19:56:44;;;;;;;2.75;1.55;;;;;16.70;96627.00;;;;8419508;28;20227;-69
2022/05/21 20:00:47;;;;;;;3.45;1.67;;;;;16.70;96629.00;;;;8418940;28;20554;-68
2022/05/21 20:04:51;;;;;;;6.45;1.60;;;;;16.80;96623.00;;;;8409991;28;20668;-68
2022/05/21 20:08:57;;;;;;;5.28;1.65;;;;;16.90;96622.00;;;;8418428;28;20409;-68
2022/05/21 20:13:01;;;;;;;5.47;1.90;;;;;17.00;96623.00;;;;8417764;28;20227;-71
2022/05/21 20:17:05;;;;;;;2.78;1.98;;;;;17.10;96608.00;;;;8418196;28;20229;-67
2022/05/21 20:21:08;;;;;;;3.33;1.75;;;;;17.10;96615.00;;;;8413553;28;20285;-66
2022/05/21 20:25:14;;;;;;;2.90;2.03;;;;;17.10;96610.00;;;;8422651;28;20223;-66
2022/05/21 20:29:17;;;;;;;1.80;1.70;;;;;17.10;96616.00;;;;8421655;28;21001;-66
2022/05/21 20:33:20;;;;;;;2.78;1.77;;;;;17.00;96608.00;;;;8422792;28;20222;-66
2022/05/21 20:37:23;;;;;;;3.60;1.90;;;;;17.00;96610.00;;;;8411400;28;20735;-67
2022/05/21 20:41:28;;;;;;;4.50;1.90;;;;;17.00;96616.00;;;;8414341;28;20227;-67
2022/05/21 20:45:31;;;;;;;4.38;1.73;;;;;16.90;96612.00;;;;8418467;28;20229;-68
2022/05/21 20:49:38;;;;;;;2.15;1.73;;;;;16.80;96620.00;;;;8415751;28;20671;-66
2022/05/21 20:53:42;;;;;;;2.17;1.70;;;;;16.70;96618.00;;;;8398459;28;20301;-66
2022/05/21 20:57:46;;;;;;;2.83;2.03;;;;;16.60;96614.00;;;;8410371;28;20218;-67
2022/05/21 21:01:49;;;;;;;9.80;1.90;;;;;16.50;96615.00;;;;8418613;28;20229;-65
2022/05/21 21:05:54;;;;;;;3.53;1.77;;;;;16.30;96613.00;;;;8412806;28;20801;-66
2022/05/21 21:09:57;;;;;;;3.38;2.22;;;;;16.10;96614.00;;;;8425084;28;20218;-66
2022/05/21 21:14:01;;;;;;;6.38;2.10;;;;;15.90;96616.00;;;;8415647;28;20805;-65